Pagina principale
METAR-TAF:

METAR-TAF

Aeroporti :

Passo di Resia, Italia

latitudine: 46-50N, longitudine: 010-30E, altezza: 1800 m

Osservazione

Il bollettino è stato emesso 22 minuti fa, alle 15:55 UTC
Vento 5 kt da nord/nord-est
Temperature 19°C
Umidità 49%
Pressione 1024 hPa
Visibilità 10 km o più
Poco nuvoloso ad un'altezza di 2000 ft, Cumulonembo.
Nubi sparse ad un'altezza di 2500 ft

METAR: LIVE 181555Z 03005KT 9999 FEW020CB SCT025 19/08 Q1024 RMK BKN VIS MIN 9999

Ora: 18:17 (16:17 UTC)


TAF: mancante

Osservazioni e previsioni meteorologiche di più di 4000 aeroporti (messaggi METAR e TAF).

Le stazioni disponibili sono rappresentate dai dischi gialli e rossi sulla carta.

Puntare il mouse per vedere il nome della stazione.

Clicca sopra per visualizzare le osservazioni e previsioni meteorologiche.

Per cambiare la mappa : fare clic sui pulsanti verdi con una croce nera per ingrandire, il pulsante verde con un trattino per diminuire, o sulla freccia verde per le mappe adiacenti.


METAR-TAF: